Time;durP1;ratioP1;P1;durP2;ratioP2;P2;SDS_P1;SDS_P2;PMS_P1;PMS_P2;Temp;Humidity;BMP_temperature;BMP_pressure;BME280_temperature;BME280_humidity;BME280_pressure;Samples;Min_cycle;Max_cycle;Signal;HPM_P1;HPM_P2
2022/05/05 00:01:33;;;;;;;33.72;12.70;;;;;;;;;;5074844;28;20078;-71
2022/05/05 00:03:59;;;;;;;29.70;11.65;;;;;;;;;;5075278;28;20487;-71
2022/05/05 00:06:28;;;;;;;32.60;11.90;;;;;;;;;;5074880;28;20051;-72
2022/05/05 00:08:55;;;;;;;29.23;12.30;;;;;;;;;;5108931;28;20397;-72
2022/05/05 00:14:27;;;;;;;38.55;12.02;;;;;;;;;;5094572;28;20260;-71
2022/05/05 00:17:00;;;;;;;27.38;11.98;;;;;;;;;;5074696;28;20049;-71
2022/05/05 00:19:28;;;;;;;29.17;11.68;;;9.70;96.60;;;;;;5074781;28;20523;-71
2022/05/05 00:21:55;;;;;;;28.40;12.55;;;;;;;;;;5074960;28;20414;-71
2022/05/05 00:24:21;;;;;;;32.70;12.13;;;;;;;;;;5074454;28;20040;-71
2022/05/05 00:26:47;;;;;;;25.60;12.85;;;;;;;;;;5074690;28;20040;-71
2022/05/05 00:29:13;;;;;;;33.47;13.60;;;;;;;;;;5074356;28;20048;-71
2022/05/05 00:31:40;;;;;;;27.13;12.35;;;;;;;;;;5057742;28;20047;-71
2022/05/05 00:34:06;;;;;;;26.45;12.02;;;;;;;;;;5057763;28;20090;-71
2022/05/05 00:36:32;;;;;;;28.75;13.07;;;;;;;;;;5074261;28;20044;-71
2022/05/05 00:38:58;;;;;;;36.58;13.30;;;;;;;;;;5074232;28;20047;-71
2022/05/05 00:41:24;;;;;;;33.17;13.60;;;;;;;;;;5074164;28;20033;-71
2022/05/05 00:43:50;;;;;;;29.55;13.35;;;;;;;;;;5074151;28;20514;-71
2022/05/05 00:46:17;;;;;;;35.60;14.55;;;;;;;;;;5074087;28;20090;-71
2022/05/05 00:48:43;;;;;;;32.88;14.52;;;;;;;;;;5074130;28;20055;-71
2022/05/05 00:51:10;;;;;;;32.83;13.80;;;;;;;;;;5074061;28;20051;-71
2022/05/05 00:53:36;;;;;;;33.45;14.35;;;;;;;;;;5074026;28;20559;-71
2022/05/05 00:56:08;;;;;;;38.90;14.00;;;9.90;97.70;;;;;;5073549;28;20071;-71
2022/05/05 00:58:35;;;;;;;38.85;13.45;;;;;;;;;;5073769;28;20040;-72
2022/05/05 01:01:06;;;;;;;36.67;13.43;;;9.70;97.60;;;;;;5073954;28;20045;-72
2022/05/05 01:03:34;;;;;;;33.58;12.95;;;9.70;97.70;;;;;;5073989;28;20408;-72
2022/05/05 01:06:01;;;;;;;30.48;13.43;;;;;;;;;;5074200;28;20049;-72
2022/05/05 01:08:27;;;;;;;24.63;11.13;;;9.50;97.40;;;;;;5074083;28;20381;-71
2022/05/05 01:10:55;;;;;;;30.02;12.80;;;;;;;;;;5073778;28;20044;-71
2022/05/05 01:13:22;;;;;;;29.42;12.15;;;;;;;;;;5057377;28;20040;-71
2022/05/05 01:15:49;;;;;;;33.33;12.13;;;;;;;;;;5073438;28;20559;-71
2022/05/05 01:18:15;;;;;;;30.52;13.98;;;;;;;;;;5073717;28;20400;-72
2022/05/05 01:20:48;;;;;;;30.35;12.52;;;9.50;97.90;;;;;;5073747;28;20041;-71
2022/05/05 01:23:16;;;;;;;27.60;11.80;;;9.50;97.40;;;;;;5073731;28;20044;-72
2022/05/05 01:28:28;;;;;;;26.60;12.90;;;9.40;97.90;;;;;;5073369;28;20036;-71
2022/05/05 01:30:54;;;;;;;34.42;12.27;;;;;;;;;;5073276;28;20072;-71
2022/05/05 01:33:24;;;;;;;29.63;13.07;;;9.20;98.30;;;;;;5073335;28;20040;-71
2022/05/05 01:35:53;;;;;;;31.88;12.43;;;9.10;98.10;;;;;;5056556;28;20037;-71
2022/05/05 01:38:22;;;;;;;30.85;13.02;;;9.20;98.30;;;;;;5073072;28;20040;-71
2022/05/05 01:40:48;;;;;;;23.52;12.60;;;;;;;;;;5056476;28;20489;-71
2022/05/05 01:43:19;;;;;;;30.73;12.82;;;9.00;98.50;;;;;;5056423;28;20037;-71
2022/05/05 01:45:46;;;;;;;29.60;12.73;;;;;;;;;;5072910;28;20072;-72
2022/05/05 01:48:12;;;;;;;34.15;15.18;;;9.10;98.50;;;;;;5073048;28;20036;-72
2022/05/05 01:50:39;;;;;;;29.42;12.82;;;;;;;;;;5073191;28;20098;-72
2022/05/05 01:53:06;;;;;;;32.45;12.93;;;8.10;99.90;;;;;;5073196;28;20380;-72
2022/05/05 01:55:33;;;;;;;29.38;12.13;;;;;;;;;;5072984;28;20040;-72
2022/05/05 01:58:00;;;;;;;28.83;12.80;;;;;;;;;;5072622;28;20048;-72
2022/05/05 02:00:26;;;;;;;33.75;12.38;;;;;;;;;;5056088;28;20044;-72
2022/05/05 02:02:52;;;;;;;31.08;12.68;;;;;;;;;;5072682;28;20047;-71
2022/05/05 02:05:19;;;;;;;31.65;12.30;;;;;;;;;;5072550;28;20037;-71
2022/05/05 02:07:46;;;;;;;32.65;12.50;;;9.00;98.90;;;;;;5072039;28;20043;-71
2022/05/05 02:10:14;;;;;;;32.05;13.35;;;8.80;98.90;;;;;;5072425;28;20503;-71
2022/05/05 02:12:41;;;;;;;32.25;12.63;;;8.90;98.40;;;;;;5056027;28;20400;-71
2022/05/05 02:15:09;;;;;;;28.15;12.43;;;9.30;99.90;;;;;;5055909;28;20036;-74
2022/05/05 02:17:36;;;;;;;31.25;13.20;;;8.90;98.70;;;;;;5089337;28;20048;-74
2022/05/05 02:20:04;;;;;;;30.50;12.57;;;8.80;99.00;;;;;;5056119;28;20040;-74
2022/05/05 02:22:30;;;;;;;30.10;13.38;;;;;;;;;;5072402;28;20037;-74
2022/05/05 02:24:56;;;;;;;30.60;12.65;;;;;;;;;;5072362;28;20047;-74
2022/05/05 02:27:22;;;;;;;26.77;12.68;;;;;;;;;;5072287;28;20044;-74
2022/05/05 02:29:49;;;;;;;29.92;12.38;;;;;;;;;;5055797;28;20052;-74
2022/05/05 02:32:16;;;;;;;35.33;12.60;;;8.70;99.10;;;;;;5072621;28;20435;-74
2022/05/05 02:34:42;;;;;;;27.20;13.65;;;;;;;;;;5072343;28;20048;-74
2022/05/05 02:39:53;;;;;;;25.17;12.68;;;;;;;;;;5072197;28;20040;-74
2022/05/05 02:42:20;;;;;;;26.95;12.73;;;;;;;;;;5055539;28;20032;-74
2022/05/05 02:44:46;;;;;;;27.02;12.57;;;8.70;98.90;;;;;;5072373;28;20036;-74
2022/05/05 02:47:12;;;;;;;36.78;13.32;;;;;;;;;;5105941;28;20049;-74
2022/05/05 02:49:38;;;;;;;31.20;12.73;;;;;;;;;;5055380;28;20053;-74
2022/05/05 02:52:05;;;;;;;29.58;14.13;;;;;;;;;;5071962;28;20049;-74
2022/05/05 02:57:16;;;;;;;27.92;12.90;;;;;;;;;;5072044;28;20036;-74
2022/05/05 02:59:42;;;;;;;29.67;13.85;;;;;;;;;;5071958;28;20045;-74
2022/05/05 03:02:08;;;;;;;38.78;13.75;;;;;;;;;;5071931;28;20481;-74
2022/05/05 03:04:35;;;;;;;28.90;13.13;;;;;;;;;;5071866;28;20067;-74
2022/05/05 03:07:01;;;;;;;32.15;13.98;;;;;;;;;;5071936;28;20161;-74
2022/05/05 03:09:27;;;;;;;31.35;14.18;;;;;;;;;;5055617;28;20051;-74
2022/05/05 03:11:53;;;;;;;31.30;13.23;;;;;;;;;;5071896;28;20080;-74
2022/05/05 03:14:19;;;;;;;28.17;13.70;;;;;;;;;;5071824;28;20119;-74
2022/05/05 03:16:45;;;;;;;28.00;13.27;;;;;;;;;;5071619;28;20098;-73
2022/05/05 03:19:11;;;;;;;29.52;12.60;;;;;;;;;;5072856;28;20127;-74
2022/05/05 03:21:38;;;;;;;34.08;13.80;;;;;;;;;;5075651;28;20055;-73
2022/05/05 03:24:04;;;;;;;36.13;13.85;;;7.60;99.90;;;;;;5075691;28;20048;-74
2022/05/05 03:26:30;;;;;;;35.70;14.07;;;;;;;;;;5075865;28;20044;-74
2022/05/05 03:28:57;;;;;;;39.55;14.70;;;;;;;;;;5058903;28;20051;-74
2022/05/05 03:31:23;;;;;;;28.58;13.75;;;;;;;;;;5059259;28;20468;-73
2022/05/05 03:33:49;;;;;;;31.02;13.98;;;;;;;;;;5075486;28;20124;-73
2022/05/05 03:36:15;;;;;;;28.58;13.93;;;;;;;;;;5075270;28;20481;-74
2022/05/05 03:38:41;;;;;;;38.28;15.88;;;;;;;;;;5058696;28;20044;-73
2022/05/05 03:41:08;;;;;;;36.20;15.02;;;;;;;;;;5058599;28;20094;-73
2022/05/05 03:43:34;;;;;;;36.47;15.23;;;;;;;;;;5075458;28;20105;-74
2022/05/05 03:46:00;;;;;;;39.78;15.65;;;;;;;;;;5075456;28;20036;-74
2022/05/05 03:48:26;;;;;;;31.25;14.20;;;;;;;;;;5075098;28;20093;-73
2022/05/05 03:50:52;;;;;;;29.85;14.45;;;;;;;;;;5076592;28;20040;-74
2022/05/05 03:53:19;;;;;;;34.55;13.90;;;7.80;99.90;;;;;;5058354;28;20102;-74
2022/05/05 03:55:45;;;;;;;32.55;15.45;;;;;;;;;;5075085;28;20040;-74
2022/05/05 03:58:11;;;;;;;41.92;15.18;;;;;;;;;;5074966;28;20060;-74
2022/05/05 04:00:37;;;;;;;35.95;15.63;;;;;;;;;;5058225;28;20480;-74
2022/05/05 04:05:48;;;;;;;35.83;14.77;;;;;;;;;;5074832;28;20052;-74
2022/05/05 04:08:14;;;;;;;31.90;14.70;;;;;;;;;;5074772;28;20461;-75
2022/05/05 04:10:41;;;;;;;31.45;14.80;;;;;;;;;;5075129;28;20545;-75
2022/05/05 04:13:07;;;;;;;35.33;14.60;;;;;;;;;;5075076;28;20123;-74
2022/05/05 04:15:33;;;;;;;33.83;14.15;;;;;;;;;;5058304;28;20036;-74
2022/05/05 04:18:00;;;;;;;34.13;13.27;;;7.50;99.90;;;;;;5074476;28;20140;-74
2022/05/05 04:20:26;;;;;;;31.92;15.13;;;;;;;;;;5057873;28;20043;-73
2022/05/05 04:22:52;;;;;;;30.23;14.18;;;;;;;;;;5074467;28;20123;-74
2022/05/05 04:25:19;;;;;;;35.30;14.48;;;;;;;;;;5108278;28;20033;-73
2022/05/05 04:27:45;;;;;;;27.33;14.93;;;7.70;99.90;;;;;;5074441;28;20514;-74
2022/05/05 04:30:14;;;;;;;30.48;14.38;;;7.80;99.90;;;;;;5057417;28;20135;-74
2022/05/05 04:32:40;;;;;;;35.60;15.23;;;;;;;;;;5074466;28;20389;-74
2022/05/05 04:35:07;;;;;;;35.78;13.38;;;;;;;;;;5074566;28;20036;-75
2022/05/05 04:37:33;;;;;;;33.80;13.70;;;;;;;;;;5057470;28;20374;-74
2022/05/05 04:39:59;;;;;;;30.67;13.57;;;;;;;;;;5074566;28;20040;-74
2022/05/05 04:42:25;;;;;;;35.92;16.30;;;;;;;;;;5074286;28;20119;-74
2022/05/05 04:44:52;;;;;;;31.92;14.02;;;;;;;;;;5074044;28;20037;-74
2022/05/05 04:47:18;;;;;;;31.45;14.00;;;;;;;;;;5074088;28;20048;-74
2022/05/05 04:49:44;;;;;;;32.22;14.88;;;;;;;;;;5074282;28;20042;-74
2022/05/05 04:52:10;;;;;;;36.03;14.98;;;;;;;;;;5074003;28;20089;-75
2022/05/05 04:54:36;;;;;;;36.08;13.82;;;;;;;;;;5073906;28;20047;-74
2022/05/05 04:57:02;;;;;;;26.65;12.63;;;;;;;;;;5057188;28;20120;-74
2022/05/05 04:59:29;;;;;;;38.08;14.30;;;;;;;;;;5073864;28;20059;-75
2022/05/05 05:01:55;;;;;;;29.17;14.07;;;;;;;;;;5073924;28;20044;-74
2022/05/05 05:04:21;;;;;;;31.50;13.70;;;;;;;;;;5074063;28;20439;-74
2022/05/05 05:06:47;;;;;;;31.85;13.73;;;;;;;;;;5073623;28;21084;-74
2022/05/05 05:09:13;;;;;;;33.25;14.80;;;;;;;;;;5073681;28;20044;-74
2022/05/05 05:11:39;;;;;;;26.42;14.05;;;;;;;;;;5073578;28;20492;-75
2022/05/05 05:14:05;;;;;;;30.92;14.60;;;;;;;;;;5073943;28;20336;-75
2022/05/05 05:16:31;;;;;;;37.25;14.65;;;;;;;;;;5073550;28;20500;-74
2022/05/05 05:18:58;;;;;;;28.20;13.57;;;;;;;;;;5073840;28;20381;-74
2022/05/05 05:21:24;;;;;;;29.45;12.75;;;;;;;;;;5073399;28;20032;-75
2022/05/05 05:23:50;;;;;;;26.08;12.85;;;;;;;;;;5073652;28;20037;-75
2022/05/05 05:26:16;;;;;;;26.30;13.98;;;;;;;;;;5073288;28;20044;-74
2022/05/05 05:28:43;;;;;;;46.53;15.48;;;;;;;;;;5056656;28;20048;-74
2022/05/05 05:31:09;;;;;;;36.28;13.32;;;;;;;;;;5073281;28;20044;-74
2022/05/05 05:33:35;;;;;;;34.92;14.10;;;;;;;;;;5073194;28;20040;-74
2022/05/05 05:36:02;;;;;;;43.05;13.63;;;;;;;;;;5073202;28;20056;-74
2022/05/05 05:38:28;;;;;;;34.85;13.20;;;;;;;;;;5073018;28;20123;-75
2022/05/05 05:40:56;;;;;;;28.23;12.88;;;;;;;;;;5074354;28;20040;-74
2022/05/05 05:43:23;;;;;;;30.08;12.95;;;;;;;;;;5055577;28;20040;-74
2022/05/05 05:45:49;;;;;;;29.73;14.35;;;;;;;;;;5073032;28;20036;-74
2022/05/05 05:48:15;;;;;;;34.45;14.25;;;;;;;;;;5072983;28;20044;-74
2022/05/05 05:50:41;;;;;;;24.25;12.73;;;;;;;;;;5072934;28;20040;-74
2022/05/05 05:53:07;;;;;;;33.70;13.18;;;;;;;;;;5072871;28;20068;-74
2022/05/05 05:55:33;;;;;;;32.85;14.50;;;;;;;;;;5072659;28;20048;-74
2022/05/05 05:57:59;;;;;;;36.70;15.00;;;;;;;;;;5072649;28;20098;-74
2022/05/05 06:00:25;;;;;;;24.08;12.82;;;;;;;;;;5039328;28;20072;-74
2022/05/05 06:05:36;;;;;;;28.67;12.38;;;;;;;;;;5072787;28;20055;-73
2022/05/05 06:08:03;;;;;;;27.23;12.27;;;10.20;99.90;;;;;;5072403;28;20123;-74
2022/05/05 06:10:29;;;;;;;33.97;12.75;;;;;;;;;;5072837;28;20048;-74
2022/05/05 06:12:56;;;;;;;28.58;13.45;;;;;;;;;;5056077;28;20044;-74
2022/05/05 06:15:22;;;;;;;37.10;13.13;;;10.20;99.90;;;;;;5055972;28;20045;-74
2022/05/05 06:17:49;;;;;;;33.90;13.18;;;10.10;99.50;;;;;;5072409;28;20043;-74
2022/05/05 06:20:15;;;;;;;34.33;12.90;;;;;;;;;;5072642;28;20044;-74
2022/05/05 06:22:42;;;;;;;24.73;12.50;;;;;;;;;;5072582;28;20068;-74
2022/05/05 06:25:11;;;;;;;31.15;12.75;;;10.30;99.80;;;;;;5055700;28;20476;-74
2022/05/05 06:27:37;;;;;;;36.92;13.50;;;;;;;;;;5089597;28;20102;-74
2022/05/05 06:30:05;;;;;;;28.10;12.57;;;10.40;99.70;;;;;;5072402;28;20048;-74
2022/05/05 06:32:31;;;;;;;33.88;13.02;;;;;;;;;;5071840;28;20052;-74
2022/05/05 06:34:57;;;;;;;28.02;13.75;;;;;;;;;;5072355;28;20036;-75
2022/05/05 06:37:24;;;;;;;28.80;13.50;;;;;;;;;;5055306;28;20551;-74
2022/05/05 06:39:50;;;;;;;35.38;13.98;;;;;;;;;;5072105;28;20040;-74
2022/05/05 06:42:16;;;;;;;28.10;12.35;;;;;;;;;;5072046;28;20489;-74
2022/05/05 06:44:42;;;;;;;24.95;12.52;;;;;;;;;;5071947;28;20040;-74
2022/05/05 06:47:09;;;;;;;30.02;13.20;;;;;;;;;;5072141;28;20040;-74
2022/05/05 06:49:35;;;;;;;28.02;12.50;;;;;;;;;;5055733;28;20041;-74
2022/05/05 06:52:01;;;;;;;26.88;12.82;;;;;;;;;;5038906;28;20051;-74
2022/05/05 06:54:28;;;;;;;28.13;12.77;;;;;;;;;;5055107;28;20048;-74
2022/05/05 06:56:55;;;;;;;68.88;31.38;;;11.00;99.50;;;;;;5071942;28;20143;-73
2022/05/05 06:59:21;;;;;;;28.25;11.68;;;;;;;;;;5055043;28;20411;-74
2022/05/05 07:01:53;;;;;;;34.60;12.80;;;;;;;;;;5071766;28;20052;-73
2022/05/05 07:07:05;;;;;;;22.77;12.15;;;11.20;98.90;;;;;;5071606;28;20048;-75
2022/05/05 07:12:16;;;;;;;33.10;12.70;;;;;;;;;;5057657;28;20488;-74
2022/05/05 07:14:45;;;;;;;21.38;12.32;;;;;;;;;;5071925;28;20048;-74
2022/05/05 07:17:15;;;;;;;26.58;12.35;;;;;;;;;;5071747;28;20385;-75
2022/05/05 07:19:41;;;;;;;29.60;12.45;;;;;;;;;;5071637;28;20119;-74
2022/05/05 07:22:07;;;;;;;35.25;12.65;;;;;;;;;;5055169;28;20435;-74
2022/05/05 07:24:34;;;;;;;26.05;12.27;;;;;;;;;;5055350;28;20055;-74
2022/05/05 07:27:01;;;;;;;28.58;13.27;;;;;;;;;;5071705;28;20087;-74
2022/05/05 07:29:27;;;;;;;26.42;11.98;;;;;;;;;;5071920;28;20432;-74
2022/05/05 07:31:53;;;;;;;31.50;12.45;;;;;;;;;;5071709;28;20044;-74
2022/05/05 07:34:19;;;;;;;23.20;12.00;;;;;;;;;;5071642;28;20102;-72
2022/05/05 07:36:45;;;;;;;33.10;12.70;;;;;;;;;;5071238;28;20119;-71
2022/05/05 07:39:12;;;;;;;31.23;12.30;;;;;;;;;;5071442;28;20124;-71
2022/05/05 07:41:38;;;;;;;32.47;12.20;;;;;;;;;;5105200;28;20122;-72
2022/05/05 07:44:05;;;;;;;23.10;11.43;;;;;;;;;;5071286;28;20044;-72
2022/05/05 07:46:35;;;;;;;23.90;12.10;;;;;;;;;;5071527;28;20079;-72
2022/05/05 07:49:01;;;;;;;28.27;13.43;;;;;;;;;;5071452;28;20036;-72
2022/05/05 07:51:28;;;;;;;31.33;13.40;;;;;;;;;;5054743;28;20163;-72
2022/05/05 07:56:39;;;;;;;29.83;12.70;;;;;;;;;;5071337;28;20432;-72
2022/05/05 07:59:05;;;;;;;30.90;12.48;;;;;;;;;;5071239;28;20079;-72
2022/05/05 08:01:32;;;;;;;24.08;12.27;;;;;;;;;;5054588;28;20040;-72
2022/05/05 08:03:58;;;;;;;28.50;11.45;;;;;;;;;;5071216;28;20040;-72
2022/05/05 08:06:24;;;;;;;32.63;12.50;;;;;;;;;;5055848;28;20048;-72
2022/05/05 08:08:50;;;;;;;26.42;11.43;;;;;;;;;;5074676;28;20079;-71
2022/05/05 08:11:16;;;;;;;33.20;11.63;;;;;;;;;;5075042;28;20046;-71
2022/05/05 08:13:42;;;;;;;22.48;12.10;;;;;;;;;;5074696;28;20047;-71
2022/05/05 08:16:08;;;;;;;25.70;11.52;;;;;;;;;;5074568;28;20480;-71
2022/05/05 08:18:38;;;;;;;23.88;10.65;;;;;;;;;;5058376;28;20029;-71
2022/05/05 08:21:05;;;;;;;21.98;11.77;;;;;;;;;;5074917;28;20488;-71
2022/05/05 08:23:31;;;;;;;20.25;9.40;;;;;;;;;;5074449;28;20040;-71
2022/05/05 08:28:41;;;;;;;18.30;9.85;;;;;;;;;;5074421;28;20044;-72
2022/05/05 08:31:10;;;;;;;32.38;11.40;;;;;;;;;;5074780;28;20040;-71
2022/05/05 08:33:36;;;;;;;23.35;10.98;;;;;;;;;;5074332;28;20044;-71
2022/05/05 08:36:03;;;;;;;25.13;10.63;;;;;;;;;;5074090;28;20132;-71
2022/05/05 08:38:29;;;;;;;23.40;11.55;;;;;;;;;;5074238;28;20472;-71
2022/05/05 08:40:56;;;;;;;27.38;11.25;;;13.90;95.90;;;;;;5074359;28;20032;-71
2022/05/05 08:43:22;;;;;;;22.00;10.40;;;;;;;;;;5075798;28;20040;-71
2022/05/05 08:45:49;;;;;;;26.95;10.23;;;;;;;;;;5057363;28;20093;-71
2022/05/05 08:48:16;;;;;;;21.00;9.88;;;;;;;;;;5074237;28;20485;-72
2022/05/05 08:50:46;;;;;;;23.25;9.38;;;;;;;;;;5074097;28;20041;-71
2022/05/05 08:53:17;;;;;;;22.00;9.98;;;14.40;94.70;;;;;;5074026;28;20505;-72
2022/05/05 08:55:46;;;;;;;18.75;9.38;;;;;;;;;;5073955;28;20137;-71
2022/05/05 08:58:12;;;;;;;13.75;7.22;;;14.20;94.20;;;;;;5073949;28;20048;-72
2022/05/05 09:00:38;;;;;;;15.82;7.65;;;;;;;;;;5073756;28;20498;-72
2022/05/05 09:03:08;;;;;;;18.65;9.15;;;;;;;;;;5075177;28;20499;-72
2022/05/05 09:05:43;;;;;;;21.02;10.15;;;14.50;93.60;;;;;;5073757;28;20044;-72
2022/05/05 09:08:13;;;;;;;20.00;9.90;;;;;;;;;;5073929;28;20397;-72
2022/05/05 09:10:44;;;;;;;21.70;10.02;;;14.90;94.60;;;;;;5073614;28;20046;-71
2022/05/05 09:13:10;;;;;;;19.67;9.02;;;;;;;;;;5073731;28;20052;-73
2022/05/05 09:15:37;;;;;;;18.23;9.52;;;15.70;97.90;;;;;;5040444;28;20128;-73
2022/05/05 09:18:15;;;;;;;18.98;10.15;;;15.60;97.80;;;;;;5056609;28;20476;-72
2022/05/05 09:20:42;;;;;;;17.80;7.07;;;14.90;94.10;;;;;;5073638;28;20040;-72
2022/05/05 09:23:08;;;;;;;23.45;8.07;;;;;;;;;;5073619;28;20478;-72
2022/05/05 09:25:48;;;;;;;17.75;7.13;;;14.20;97.20;;;;;;5073727;28;20427;-72
2022/05/05 09:28:19;;;;;;;14.15;8.07;;;15.90;97.50;;;;;;5056639;28;20515;-72
2022/05/05 09:30:47;;;;;;;21.75;9.27;;;;;;;;;;5073382;28;20048;-72
2022/05/05 09:33:15;;;;;;;19.70;8.38;;;15.50;93.30;;;;;;5073548;28;20511;-72
2022/05/05 09:35:41;;;;;;;15.48;9.10;;;;;;;;;;5073142;28;20481;-73
2022/05/05 09:38:07;;;;;;;20.30;8.13;;;;;;;;;;5072845;28;20040;-73
2022/05/05 09:40:33;;;;;;;17.35;8.88;;;;;;;;;;5072991;28;20072;-73
2022/05/05 09:43:01;;;;;;;21.00;8.30;;;;;;;;;;5074290;28;20549;-73
2022/05/05 09:45:33;;;;;;;17.60;7.72;;;16.10;92.80;;;;;;5073108;28;20083;-73
2022/05/05 09:48:04;;;;;;;22.30;8.68;;;16.00;92.20;;;;;;5073207;28;20373;-73
2022/05/05 09:50:32;;;;;;;23.02;8.20;;;16.30;91.70;;;;;;5074361;28;20052;-73
2022/05/05 09:58:35;;;;;;;17.02;8.15;;;;;;;;;;5072735;28;20132;-72
2022/05/05 10:01:08;;;;;;;17.95;8.57;;;16.40;91.40;;;;;;5072555;28;20503;-72
2022/05/05 10:06:34;;;;;;;17.15;9.48;;;15.70;94.70;;;;;;5072825;28;20048;-71
2022/05/05 10:09:07;;;;;;;17.02;8.55;;;16.60;95.10;;;;;;5072669;28;20046;-72
2022/05/05 10:11:34;;;;;;;23.67;9.23;;;16.70;91.10;;;;;;5056083;28;20115;-71
2022/05/05 10:14:02;;;;;;;16.52;8.82;;;16.80;91.00;;;;;;5055805;28;20484;-72
2022/05/05 10:16:32;;;;;;;18.67;8.75;;;16.70;90.90;;;;;;5072250;28;20044;-72
2022/05/05 10:19:04;;;;;;;18.55;9.35;;;;;;;;;;5072447;28;20477;-71
2022/05/05 10:21:49;;;;;;;21.88;10.65;;;17.00;90.40;;;;;;5055565;28;20037;-72
2022/05/05 10:24:16;;;;;;;23.35;10.38;;;;;;;;;;5072479;28;20053;-72
2022/05/05 10:26:47;;;;;;;20.70;10.40;;;17.00;90.80;;;;;;5056046;28;20392;-71
2022/05/05 10:29:32;;;;;;;18.27;9.38;;;;;;;;;;5071711;28;20044;-72
2022/05/05 10:32:15;;;;;;;21.77;11.30;;;;;;;;;;5072539;28;20094;-72
2022/05/05 10:34:45;;;;;;;22.80;11.20;;;17.00;91.10;;;;;;5073472;28;20056;-72
2022/05/05 10:37:18;;;;;;;30.15;12.60;;;17.20;90.90;;;;;;5072238;28;20127;-72
2022/05/05 10:39:44;;;;;;;21.92;12.10;;;;;;;;;;5072130;28;20055;-72
2022/05/05 10:42:21;;;;;;;23.40;11.57;;;18.00;94.60;;;;;;5072048;28;20036;-72
2022/05/05 10:45:24;;;;;;;22.20;11.68;;;17.40;89.50;;;;;;5072166;28;20131;-71
2022/05/05 10:47:54;;;;;;;30.17;12.75;;;18.40;94.50;;;;;;5072108;28;20036;-71
2022/05/05 10:50:43;;;;;;;34.45;14.77;;;17.80;90.40;;;;;;5072145;28;20073;-71
2022/05/05 10:53:24;;;;;;;29.58;13.20;;;17.90;90.10;;;;;;5072320;28;20048;-72
2022/05/05 10:55:51;;;;;;;27.47;13.17;;;;;;;;;;5071912;28;20594;-72
2022/05/05 10:58:54;;;;;;;31.00;15.10;;;18.30;87.90;;;;;;5072190;28;20454;-71
2022/05/05 11:01:20;;;;;;;27.15;13.45;;;;;;;;;;5105605;28;20061;-72
2022/05/05 11:04:24;;;;;;;29.27;13.80;;;19.00;93.80;;;;;;5072017;28;20076;-72
2022/05/05 11:07:10;;;;;;;34.17;15.55;;;;;;;;;;5071544;28;20135;-72
2022/05/05 11:09:36;;;;;;;34.35;15.60;;;;;;;;;;5055334;28;20044;-71
2022/05/05 11:12:19;;;;;;;29.20;14.88;;;;;;;;;;5071951;28;20124;-71
2022/05/05 11:23:50;;;;;;;32.20;16.27;;;17.90;92.80;;;;;;5071717;28;20045;-72
2022/05/05 11:26:19;;;;;;;;;;;18.40;88.20;;;;;;5072337;28;20075;-72
2022/05/05 11:28:47;;;;;;;31.75;16.45;;;18.30;87.20;;;;;;5088430;28;19923;-72
2022/05/05 11:31:20;;;;;;;36.10;16.73;;;;;;;;;;5071696;28;20128;-72
2022/05/05 11:33:54;;;;;;;33.22;16.40;;;18.20;87.50;;;;;;5054961;28;20515;-72
2022/05/05 11:36:20;;;;;;;33.80;16.05;;;;;;;;;;5071737;28;20056;-73
2022/05/05 11:38:46;;;;;;;38.92;18.65;;;;;;;;;;5055057;28;20099;-71
2022/05/05 11:41:20;;;;;;;46.13;21.30;;;18.30;89.30;;;;;;5039478;28;20105;-72
2022/05/05 11:46:31;;;;;;;40.60;17.65;;;19.10;93.50;;;;;;5075347;28;20047;-72
2022/05/05 11:48:58;;;;;;;49.78;18.45;;;;;;;;;;5075287;28;20495;-72
2022/05/05 11:51:25;;;;;;;49.28;21.52;;;;;;;;;;5058536;28;20051;-72
2022/05/05 11:54:08;;;;;;;44.65;20.23;;;18.70;86.80;;;;;;5075252;28;20044;-73
2022/05/05 11:56:44;;;;;;;50.85;24.00;;;18.60;89.30;;;;;;5074950;28;20040;-73
2022/05/05 12:02:00;;;;;;;54.20;23.55;;;19.20;92.70;;;;;;5075100;28;20056;-72
2022/05/05 12:04:28;;;;;;;49.80;23.25;;;18.70;88.70;;;;;;5074958;28;20044;-72
2022/05/05 12:06:54;;;;;;;57.40;23.83;;;;;;;;;;5074960;28;20101;-72
2022/05/05 12:09:20;;;;;;;79.13;26.27;;;;;;;;;;5074902;28;20045;-72
2022/05/05 12:11:46;;;;;;;48.90;23.75;;;;;;;;;;5058408;28;20036;-72
2022/05/05 12:14:13;;;;;;;56.88;24.42;;;18.00;92.70;;;;;;5075055;28;20052;-72
2022/05/05 12:16:40;;;;;;;47.50;24.58;;;;;;;;;;5074722;28;20453;-72
2022/05/05 12:19:14;;;;;;;45.35;21.42;;;18.70;88.50;;;;;;5074940;28;20048;-72
2022/05/05 12:21:54;;;;;;;51.83;22.88;;;18.70;89.10;;;;;;5057898;28;20036;-72
2022/05/05 12:24:24;;;;;;;50.92;22.90;;;18.60;92.90;;;;;;5074789;28;20090;-72
2022/05/05 12:27:13;;;;;;;47.92;21.85;;;19.00;89.50;;;;;;5057925;28;20044;-73
2022/05/05 12:29:39;;;;;;;56.33;22.70;;;;;;;;;;5074725;28;20086;-72
2022/05/05 12:32:09;;;;;;;52.35;23.05;;;19.20;87.80;;;;;;5074420;28;20519;-71
2022/05/05 12:34:35;;;;;;;57.10;23.55;;;19.50;92.60;;;;;;5057793;28;20554;-71
2022/05/05 12:37:16;;;;;;;52.80;23.98;;;18.40;88.20;;;;;;5074157;28;20037;-71
2022/05/05 12:39:57;;;;;;;54.50;24.60;;;18.40;92.20;;;;;;5074325;28;20040;-71
2022/05/05 12:42:25;;;;;;;44.47;22.70;;;19.00;86.40;;;;;;5074476;28;20029;-71
2022/05/05 12:44:51;;;;;;;52.45;22.00;;;;;;;;;;5057470;28;20044;-71
2022/05/05 12:47:24;;;;;;;47.03;21.98;;;18.90;88.00;;;;;;5074071;28;20050;-72
2022/05/05 12:49:51;;;;;;;47.47;21.23;;;;;;;;;;5074399;28;20143;-72
2022/05/05 13:00:43;;;;;;;52.58;22.67;;;;;;;;;;5073565;28;20516;-72
2022/05/05 13:03:09;;;;;;;44.17;21.63;;;19.80;92.30;;;;;;5073938;28;20049;-72
2022/05/05 13:05:36;;;;;;;42.60;19.98;;;19.50;85.80;;;;;;5073813;28;20040;-72
2022/05/05 13:08:02;;;;;;;41.03;19.80;;;;;;;;;;5073697;28;20489;-72
2022/05/05 13:10:29;;;;;;;51.13;22.13;;;;;;;;;;5057322;28;20037;-72
2022/05/05 13:12:55;;;;;;;54.53;23.98;;;;;;;;;;5073900;28;20051;-72
2022/05/05 13:15:21;;;;;;;62.80;28.85;;;;;;;;;;5073846;28;20044;-73
2022/05/05 13:17:46;;;;;;;73.93;31.77;;;20.20;92.40;;;;;;5073339;28;20047;-72
2022/05/05 13:20:12;;;;;;;84.70;32.53;;;;;;;;;;5073455;28;20036;-72
2022/05/05 13:22:38;;;;;;;69.78;32.22;;;19.70;91.70;;;;;;5073802;28;20093;-73
2022/05/05 13:25:04;;;;;;;84.22;33.65;;;20.20;88.70;;;;;;5073301;28;20044;-72
2022/05/05 13:27:30;;;;;;;88.88;34.33;;;;;;;;;;5073254;28;20040;-72
2022/05/05 13:29:56;;;;;;;93.43;33.47;;;17.60;92.20;;;;;;5073202;28;20097;-72
2022/05/05 13:32:22;;;;;;;85.78;33.40;;;;;;;;;;5073428;28;20119;-72
2022/05/05 13:34:48;;;;;;;86.35;33.28;;;;;;;;;;5073164;28;20052;-72
2022/05/05 13:37:14;;;;;;;75.72;31.58;;;17.90;94.20;;;;;;5073003;28;20044;-73
2022/05/05 13:39:39;;;;;;;88.70;34.72;;;17.80;94.40;;;;;;5056469;28;20047;-72
2022/05/05 13:42:05;;;;;;;85.60;31.67;;;17.40;94.40;;;;;;5056467;28;20036;-72
2022/05/05 13:44:31;;;;;;;78.85;32.72;;;;;;;;;;5072915;28;20067;-72
2022/05/05 13:46:57;;;;;;;84.60;34.20;;;;;;;;;;5056341;28;20041;-72
2022/05/05 13:49:24;;;;;;;82.60;33.13;;;;;;;;;;5056494;28;20036;-72
2022/05/05 13:51:50;;;;;;;85.05;32.30;;;;;;;;;;5072785;28;20488;-72
2022/05/05 13:54:16;;;;;;;88.80;35.63;;;;;;;;;;5056360;28;20044;-72
2022/05/05 13:56:42;;;;;;;83.15;34.08;;;;;;;;;;5106523;28;20040;-73
2022/05/05 13:59:08;;;;;;;86.22;34.25;;;;;;;;;;5055890;28;20041;-72
2022/05/05 14:01:34;;;;;;;84.07;35.47;;;;;;;;;;5056293;28;20049;-72
2022/05/05 14:04:01;;;;;;;91.93;34.45;;;;;;;;;;5072005;28;20068;-72
2022/05/05 14:06:29;;;;;;;88.78;35.20;;;;;;;;;;5072687;28;20475;-72
2022/05/05 14:14:24;;;;;;;84.63;35.28;;;;;;;;;;5072481;28;20106;-73
2022/05/05 14:16:50;;;;;;;78.50;33.67;;;;;;;;;;5071985;28;20480;-72
2022/05/05 14:19:16;;;;;;;78.13;34.65;;;;;;;;;;5072254;28;20480;-73
2022/05/05 14:21:42;;;;;;;81.22;35.03;;;;;;;;;;5072299;28;20041;-72
2022/05/05 14:24:08;;;;;;;85.22;34.15;;;17.40;95.40;;;;;;5072128;28;20047;-72
2022/05/05 14:26:34;;;;;;;85.40;33.63;;;17.10;95.30;;;;;;5072209;28;20078;-72
2022/05/05 14:29:01;;;;;;;79.85;33.78;;;;;;;;;;5072182;28;20504;-72
2022/05/05 14:31:27;;;;;;;86.05;34.10;;;;;;;;;;5072136;28;20488;-72
2022/05/05 14:33:53;;;;;;;81.53;32.75;;;18.50;95.90;;;;;;5072425;28;20493;-72
2022/05/05 14:36:19;;;;;;;81.88;33.50;;;;;;;;;;5071975;28;20044;-72
2022/05/05 14:38:45;;;;;;;83.97;32.67;;;;;;;;;;5072406;28;20076;-72
2022/05/05 14:41:12;;;;;;;80.97;33.47;;;;;;;;;;5072085;28;20040;-72
2022/05/05 14:43:38;;;;;;;80.00;33.58;;;;;;;;;;5071969;28;20177;-72
2022/05/05 14:46:04;;;;;;;77.47;31.48;;;;;;;;;;5072019;28;20047;-72
2022/05/05 14:48:30;;;;;;;82.60;33.33;;;;;;;;;;5105722;28;20503;-72
2022/05/05 14:50:56;;;;;;;79.72;31.90;;;18.70;95.70;;;;;;5071919;28;20044;-72
2022/05/05 14:53:23;;;;;;;78.53;32.22;;;;;;;;;;5072006;28;20071;-72